Aérodrome :
LOGIN :

S'inscrire | Disclaimer

   EN    FR    IT 

 










Légende :    VFR   VFR Marginal   IFR   IFR Intensif   IFR Très Intensif
Visi : 
Plafond : 
>= 8 km
>= 3000ft
5 à 8 km
1000 à 3000 ft
1500m à 5 km
500 à 1000 ft
800 à 1500m
200 à 500 ft
< 800m
< 200 ft
Symboles :   Orages  Brouillard  Fortes neiges  Fortes précipitations  Vent > 20 kt
SIGMETs :   Divers  Orages  Givrage  Turbulence  Onde Orograph.  Cendres Volcan.







- Altitude de l'aérodrome : 26 ft
- Code IATA : KLX


LGKL - Kalamata AB

DERNIER METAR :
  • 230650Z 00000KT 5000 TS BR FEW015CB BKN025 10/08 Q1006

METARs EXPIRÉS :
  • 230620Z 32004KT 5000 TS BR FEW015CB SCT030 09/08 Q1006
  • 230550Z 00000KT 5000 2000N BR FEW020 SCT030 BKN080 09/08 Q1007
  • 230520Z 00000KT 8000 4000N BR FEW018TCU SCT030 BKN080 09/08 Q1007
  • 230450Z 00000KT 9999 FEW018TCU SCT030 BKN080 09/08 Q1007
  • 230420Z 34005KT 9999 FEW018TCU SCT030 BKN080 09/08 Q1007

TAF TAF LGKL
Valide du 23 à 06h jusqu'au 23 à 15h UTC


230500Z 2306/2315 16012G22KT 8000 SCT025 BKN080
PROB40
TEMPO 2306/2315 4000 RA
PROB40
TEMPO 2306/2315 2000 TSRA FEW016CB BKN020 OVC080
Pas de NOTAMs connus pour ce terrain.
2 SIGMETs publiés pour la FIR Athinai (LGGG) :
 
Orages noyés dans la masse
LGGG SIGMET 4 VALID 230554/230730 LGAT
LGGG ATHINAI FIR/UIR EMBD TS OBS WI N3750 E02150-N3750 E02350-N3600 E02350-N3600 E02150-N3750 E02150 MOV E NC=
Orages noyés dans la masse
LGGG SIGMET 3 VALID 230530/230730 LGAT
LGGG ATHINAI FIR/UIR EMBD TS OBS WI N3700 E02330-N4120 E02510-N4130 E02630-N3900 E02640-N3800 E02700-N3600 E02400-N3700 E02330 MOV E NC AND EMBD TS OBS W OF E02000 MOV E NC=



MET'MAP, la Météo Aéronautique d'un coup d'oeil ! - Copyright ORBIFLY Décembre 2007 - Disclaimer

ORBIFLY MET'MAP TEAM :

Programmation & Développement : Alexandra Zaïnal
Conception & Développement : Baudouin d'Aumeries
Co-Programmation & Développement : Marc-Olivier Méhu
Soutien technique & logistique : Manuel Goepfert

Contact : metmap@orbifly.com




SOURCES & CREDITS :

   NOAA